createdAt,value
2023-11-18T00:00:55.665Z,199
2023-11-18T00:02:04.890Z,202
2023-11-18T00:03:14.024Z,176
2023-11-18T00:04:23.237Z,196
2023-11-18T00:05:32.315Z,198
2023-11-18T00:06:41.623Z,184
2023-11-18T00:07:50.668Z,201
2023-11-18T00:08:59.930Z,163
2023-11-18T00:10:08.176Z,180
2023-11-18T00:11:17.232Z,180
2023-11-18T00:12:26.471Z,163
2023-11-18T00:13:35.681Z,188
2023-11-18T00:14:44.723Z,171
2023-11-18T00:15:53.972Z,194
2023-11-18T00:17:02.109Z,185
2023-11-18T00:18:10.325Z,186
2023-11-18T00:19:19.450Z,142
2023-11-18T00:20:28.693Z,130
2023-11-18T00:21:37.834Z,141
2023-11-18T00:22:46.986Z,169
2023-11-18T00:23:56.210Z,134
2023-11-18T00:25:05.312Z,143
2023-11-18T00:26:14.535Z,176
2023-11-18T00:27:23.662Z,163
2023-11-18T00:28:32.835Z,124
2023-11-18T00:29:42.022Z,172
2023-11-18T00:30:51.209Z,141
2023-11-18T00:32:00.356Z,150
2023-11-18T00:33:09.618Z,162
2023-11-18T00:34:17.825Z,108
2023-11-18T00:35:26.912Z,117
2023-11-18T00:36:36.147Z,100
2023-11-18T00:37:45.354Z,100
2023-11-18T00:38:54.431Z,103
2023-11-18T00:40:02.662Z,97
2023-11-18T00:41:12.080Z,110
2023-11-18T00:42:19.983Z,113
2023-11-18T00:43:28.200Z,111
2023-11-18T00:45:46.578Z,141
2023-11-18T00:46:55.717Z,157
2023-11-18T00:48:04.925Z,134
2023-11-18T00:49:14.034Z,151
2023-11-18T00:50:23.218Z,165
2023-11-18T00:51:32.515Z,153
2023-11-18T00:52:41.553Z,150
2023-11-18T00:53:50.833Z,127
2023-11-18T00:54:59.898Z,159
2023-11-18T00:56:09.439Z,167
2023-11-18T00:57:18.246Z,120
2023-11-18T00:58:26.656Z,125
2023-11-18T00:59:35.671Z,171
2023-11-18T01:00:44.889Z,118
2023-11-18T01:01:53.941Z,110
2023-11-18T01:03:03.214Z,92
2023-11-18T01:04:12.353Z,97
2023-11-18T01:06:30.696Z,90
2023-11-18T01:07:38.934Z,129
2023-11-18T01:08:47.066Z,127
2023-11-18T01:09:56.371Z,103
2023-11-18T01:11:04.499Z,97
2023-11-18T01:12:13.822Z,114
2023-11-18T01:13:22.747Z,107
2023-11-18T01:14:32.017Z,87
2023-11-18T01:16:50.279Z,108
2023-11-18T01:19:08.608Z,111
2023-11-18T01:20:17.820Z,141
2023-11-18T01:22:36.164Z,94
2023-11-18T01:23:44.367Z,67
2023-11-18T01:24:52.508Z,133
2023-11-18T01:26:01.694Z,124
2023-11-18T01:27:10.879Z,72
2023-11-18T01:28:20.023Z,72
2023-11-18T01:29:29.201Z,84
2023-11-18T01:30:38.381Z,84
2023-11-18T01:31:47.539Z,81
2023-11-18T01:32:56.739Z,82
2023-11-18T01:34:05.928Z,82
2023-11-18T01:35:14.165Z,78
2023-11-18T01:36:22.351Z,68
2023-11-18T01:37:31.449Z,80
2023-11-18T01:38:40.622Z,82
2023-11-18T01:40:58.970Z,99
2023-11-18T01:42:08.143Z,90
2023-11-18T01:43:17.347Z,81
2023-11-18T01:44:26.492Z,94
2023-11-18T01:45:35.846Z,92
2023-11-18T01:46:44.868Z,106
2023-11-18T01:47:54.063Z,109
2023-11-18T01:49:03.202Z,109
2023-11-18T01:50:12.377Z,131
2023-11-18T01:51:20.534Z,127
2023-11-18T01:52:29.727Z,126
2023-11-18T01:53:38.884Z,122
2023-11-18T01:54:48.061Z,120
2023-11-18T01:55:57.237Z,81
2023-11-18T01:57:06.432Z,71
2023-11-18T01:58:15.579Z,90
2023-11-18T01:59:23.844Z,91
2023-11-18T02:00:31.999Z,91
2023-11-18T02:01:41.141Z,109
2023-11-18T02:02:50.323Z,105
2023-11-18T02:03:59.492Z,128
2023-11-18T02:05:08.726Z,112
2023-11-18T02:06:17.989Z,112
2023-11-18T02:07:27.112Z,67
2023-11-18T02:08:36.195Z,64
2023-11-18T02:10:54.561Z,83
2023-11-18T02:12:03.807Z,84
2023-11-18T02:13:12.875Z,72
2023-11-18T02:15:31.252Z,114
2023-11-18T02:16:39.451Z,71
2023-11-18T02:17:47.612Z,98
2023-11-18T02:18:56.780Z,98
2023-11-18T02:20:05.957Z,80
2023-11-18T02:21:15.151Z,85
2023-11-18T02:22:24.303Z,97
2023-11-18T02:23:33.504Z,115
2023-11-18T02:24:42.672Z,113
2023-11-18T02:25:51.864Z,99
2023-11-18T02:27:01.003Z,115
2023-11-18T02:28:09.167Z,122
2023-11-18T02:29:18.350Z,112
2023-11-18T02:30:26.538Z,72
2023-11-18T02:31:35.741Z,90
2023-11-18T02:32:44.889Z,89
2023-11-18T02:33:54.078Z,88
2023-11-18T02:36:12.427Z,69
2023-11-18T02:37:21.665Z,61
2023-11-18T02:38:30.797Z,103
2023-11-18T02:39:39.952Z,87
2023-11-18T02:40:49.104Z,92
2023-11-18T02:41:58.376Z,81
2023-11-18T02:43:07.444Z,82
2023-11-18T02:44:16.614Z,81
2023-11-18T02:45:24.833Z,83
2023-11-18T02:46:33.984Z,68
2023-11-18T02:47:43.154Z,67
2023-11-18T02:48:52.357Z,57
2023-11-18T02:50:01.545Z,94
2023-11-18T02:51:10.690Z,96
2023-11-18T02:52:18.904Z,94
2023-11-18T02:53:27.055Z,95
2023-11-18T02:54:36.269Z,93
2023-11-18T02:56:54.614Z,83
2023-11-18T02:58:03.758Z,156
2023-11-18T02:59:12.953Z,123
2023-11-18T03:00:22.112Z,159
2023-11-18T03:01:31.302Z,163
2023-11-18T03:02:40.464Z,135
2023-11-18T03:03:49.630Z,97
2023-11-18T03:04:58.802Z,140
2023-11-18T03:07:17.160Z,94
2023-11-18T03:08:25.356Z,96
2023-11-18T03:09:33.616Z,103
2023-11-18T03:10:42.721Z,102
2023-11-18T03:11:52.007Z,104
2023-11-18T03:13:01.061Z,101
2023-11-18T03:14:10.255Z,111
2023-11-18T03:15:19.425Z,113
2023-11-18T03:16:28.641Z,114
2023-11-18T03:17:37.764Z,128
2023-11-18T03:18:46.939Z,114
2023-11-18T03:19:55.122Z,110
2023-11-18T03:21:03.313Z,112
2023-11-18T03:23:20.690Z,126
2023-11-18T03:24:29.855Z,118
2023-11-18T03:25:39.028Z,113
2023-11-18T03:26:48.179Z,110
2023-11-18T03:27:57.349Z,103
2023-11-18T03:29:06.546Z,105
2023-11-18T03:30:15.767Z,98
2023-11-18T03:31:24.868Z,108
2023-11-18T03:32:34.039Z,107
2023-11-18T03:33:43.227Z,107
2023-11-18T03:34:52.408Z,112
2023-11-18T03:36:01.571Z,116
2023-11-18T03:37:09.965Z,100
2023-11-18T03:38:18.936Z,100
2023-11-18T03:39:28.096Z,95
2023-11-18T03:40:37.284Z,105
2023-11-18T03:41:46.457Z,97
2023-11-18T03:44:04.861Z,102
2023-11-18T03:45:14.093Z,102
2023-11-18T03:46:22.200Z,102
2023-11-18T03:47:30.352Z,121
2023-11-18T03:48:39.566Z,154
2023-11-18T03:49:48.696Z,108
2023-11-18T03:50:57.881Z,88
2023-11-18T03:52:07.107Z,81
2023-11-18T03:53:16.234Z,81
2023-11-18T03:54:25.394Z,83
2023-11-18T03:55:34.560Z,81
2023-11-18T03:56:43.770Z,79
2023-11-18T03:57:52.970Z,113
2023-11-18T03:59:02.110Z,113
2023-11-18T04:00:11.265Z,106
2023-11-18T04:01:20.425Z,105
2023-11-18T04:02:28.624Z,107
2023-11-18T04:03:37.807Z,115
2023-11-18T04:04:46.982Z,101
2023-11-18T04:05:56.136Z,90
2023-11-18T04:07:05.319Z,114
2023-11-18T04:08:14.488Z,115
2023-11-18T04:09:23.660Z,114
2023-11-18T04:10:31.973Z,107
2023-11-18T04:11:40.068Z,111
2023-11-18T04:13:57.407Z,61
2023-11-18T04:15:06.653Z,114
2023-11-18T04:16:15.764Z,135
2023-11-18T04:17:24.940Z,140
2023-11-18T04:18:34.102Z,109
2023-11-18T04:19:43.306Z,117
2023-11-18T04:20:52.477Z,119
2023-11-18T04:22:01.724Z,114
2023-11-18T04:23:10.808Z,109
2023-11-18T04:24:20.086Z,110
2023-11-18T04:25:29.164Z,125
2023-11-18T04:26:38.315Z,121
2023-11-18T04:27:46.527Z,120
2023-11-18T04:28:55.685Z,122
2023-11-18T04:30:04.872Z,106
2023-11-18T04:31:13.068Z,98
2023-11-18T04:32:22.222Z,97
2023-11-18T04:33:31.452Z,97
2023-11-18T04:34:40.578Z,97
2023-11-18T04:35:49.746Z,88
2023-11-18T04:36:57.938Z,78
2023-11-18T04:38:06.144Z,74
2023-11-18T04:39:15.312Z,75
2023-11-18T04:40:24.473Z,75
2023-11-18T04:41:33.659Z,77
2023-11-18T04:42:42.824Z,73
2023-11-18T04:43:51.983Z,75
2023-11-18T04:45:01.171Z,74
2023-11-18T04:46:10.498Z,76
2023-11-18T04:47:19.545Z,74
2023-11-18T04:48:28.692Z,74
2023-11-18T04:49:37.867Z,72
2023-11-18T04:50:47.051Z,74
2023-11-18T04:51:56.347Z,75
2023-11-18T04:53:04.419Z,65
2023-11-18T04:54:13.575Z,69
2023-11-18T04:55:22.763Z,72
2023-11-18T04:56:31.939Z,72
2023-11-18T04:57:41.127Z,76
2023-11-18T04:58:50.278Z,78
2023-11-18T05:01:07.609Z,78
2023-11-18T05:02:15.845Z,78
2023-11-18T05:03:24.025Z,78
2023-11-18T05:04:33.211Z,91
2023-11-18T05:05:42.361Z,91
2023-11-18T05:06:51.557Z,92
2023-11-18T05:08:00.733Z,92
2023-11-18T05:09:10.031Z,93
2023-11-18T05:10:19.066Z,95
2023-11-18T05:11:28.300Z,89
2023-11-18T05:12:37.399Z,61
2023-11-18T05:13:46.589Z,96
2023-11-18T05:14:55.768Z,81
2023-11-18T05:16:04.928Z,87
2023-11-18T05:17:14.111Z,87
2023-11-18T05:18:23.325Z,106
2023-11-18T05:19:31.545Z,90
2023-11-18T05:20:40.656Z,77
2023-11-18T05:21:49.807Z,77
2023-11-18T05:22:58.976Z,55
2023-11-18T05:24:08.173Z,64
2023-11-18T05:25:17.319Z,72
2023-11-18T05:27:35.676Z,76
2023-11-18T05:28:44.841Z,77
2023-11-18T05:29:54.004Z,101
2023-11-18T05:31:03.190Z,73
2023-11-18T05:32:12.380Z,74
2023-11-18T05:33:21.535Z,88
2023-11-18T05:34:29.743Z,64
2023-11-18T05:35:38.904Z,76
2023-11-18T05:36:48.070Z,78
2023-11-18T05:37:57.242Z,75
2023-11-18T05:39:06.452Z,98
2023-11-18T05:40:15.601Z,85
2023-11-18T05:41:24.768Z,87
2023-11-18T05:43:43.119Z,92
2023-11-18T05:44:52.343Z,82
2023-11-18T05:46:01.463Z,87
2023-11-18T05:47:10.719Z,95
2023-11-18T05:48:19.811Z,103
2023-11-18T05:49:27.998Z,81
2023-11-18T05:50:37.215Z,78
2023-11-18T05:51:46.334Z,80
2023-11-18T05:52:55.541Z,76
2023-11-18T05:54:04.694Z,78
2023-11-18T05:55:13.867Z,93
2023-11-18T05:56:23.068Z,95
2023-11-18T05:58:41.417Z,78
2023-11-18T05:59:50.555Z,118
2023-11-18T06:00:59.742Z,117
2023-11-18T06:02:09.011Z,117
2023-11-18T06:03:18.068Z,118
2023-11-18T06:04:26.272Z,155
2023-11-18T06:05:35.441Z,121
2023-11-18T06:06:44.629Z,117
2023-11-18T06:09:02.968Z,135
2023-11-18T06:10:12.121Z,119
2023-11-18T06:11:21.361Z,116
2023-11-18T06:12:30.482Z,140
2023-11-18T06:14:48.847Z,138
2023-11-18T06:15:57.037Z,118
2023-11-18T06:17:05.208Z,118
2023-11-18T06:18:14.386Z,123
2023-11-18T06:19:23.548Z,112
2023-11-18T06:21:42.020Z,88
2023-11-18T06:22:51.135Z,90
2023-11-18T06:24:00.258Z,90
2023-11-18T06:25:09.567Z,86
2023-11-18T06:26:18.591Z,68
2023-11-18T06:27:27.796Z,67
2023-11-18T06:28:36.938Z,75
2023-11-18T06:29:46.118Z,112
2023-11-18T06:30:55.293Z,110
2023-11-18T06:32:03.466Z,111
2023-11-18T06:33:12.642Z,106
2023-11-18T06:34:21.838Z,94
2023-11-18T06:35:31.006Z,89
2023-11-18T06:37:49.349Z,63
2023-11-18T06:38:57.687Z,62
2023-11-18T06:40:05.739Z,63
2023-11-18T06:41:13.950Z,98
2023-11-18T06:42:23.110Z,98
2023-11-18T06:43:32.289Z,100
2023-11-18T06:44:41.476Z,90
2023-11-18T06:45:50.643Z,89
2023-11-18T06:46:59.790Z,90
2023-11-18T06:48:08.970Z,93
2023-11-18T06:49:18.269Z,95
2023-11-18T06:50:27.315Z,94
2023-11-18T06:51:35.565Z,99
2023-11-18T06:52:44.686Z,101
2023-11-18T06:53:52.889Z,100
2023-11-18T06:55:02.026Z,102
2023-11-18T06:56:11.224Z,99
2023-11-18T06:58:29.579Z,76
2023-11-18T06:59:38.837Z,75
2023-11-18T07:00:47.912Z,75
2023-11-18T07:01:57.179Z,76
2023-11-18T07:03:06.261Z,90
2023-11-18T07:05:24.625Z,82
2023-11-18T07:06:32.796Z,86
2023-11-18T07:07:42.002Z,91
2023-11-18T07:08:50.264Z,109
2023-11-18T07:11:08.514Z,106
2023-11-18T07:12:17.681Z,86
2023-11-18T07:13:26.852Z,111
2023-11-18T07:14:36.033Z,110
2023-11-18T07:15:45.209Z,127
2023-11-18T07:16:54.361Z,123
2023-11-18T07:19:12.757Z,105
2023-11-18T07:20:21.914Z,97
2023-11-18T07:21:31.062Z,93
2023-11-18T07:23:49.432Z,127
2023-11-18T07:24:57.605Z,124
2023-11-18T07:26:06.790Z,102
2023-11-18T07:27:15.954Z,110
2023-11-18T07:28:25.138Z,112
2023-11-18T07:29:34.310Z,119
2023-11-18T07:30:43.476Z,105
2023-11-18T07:31:52.658Z,85
2023-11-18T07:33:01.839Z,116
2023-11-18T07:35:20.173Z,112
2023-11-18T07:36:29.336Z,110
2023-11-18T07:37:38.512Z,80
2023-11-18T07:38:47.706Z,97
2023-11-18T07:39:55.901Z,75
2023-11-18T07:41:05.066Z,81
2023-11-18T07:42:14.228Z,86
2023-11-18T07:43:23.400Z,100
2023-11-18T07:44:32.631Z,86
2023-11-18T07:45:41.784Z,96
2023-11-18T07:46:50.926Z,69
2023-11-18T07:47:59.140Z,97
2023-11-18T07:49:07.317Z,97
2023-11-18T07:50:16.484Z,99
2023-11-18T07:51:25.678Z,100
2023-11-18T07:52:34.837Z,113
2023-11-18T07:53:43.978Z,106
2023-11-18T07:54:53.159Z,97
2023-11-18T07:56:02.337Z,121
2023-11-18T07:57:11.506Z,107
2023-11-18T07:58:20.667Z,103
2023-11-18T07:59:28.883Z,81
2023-11-18T08:00:37.071Z,126
2023-11-18T08:01:46.226Z,78
2023-11-18T08:02:55.426Z,79
2023-11-18T08:04:04.583Z,84
2023-11-18T08:05:13.755Z,75
2023-11-18T08:06:22.938Z,101
2023-11-18T08:07:32.096Z,119
2023-11-18T08:08:41.276Z,136
2023-11-18T08:10:59.605Z,124
2023-11-18T08:12:08.781Z,124
2023-11-18T08:13:17.994Z,116
2023-11-18T08:14:27.139Z,108
2023-11-18T08:15:35.344Z,99
2023-11-18T08:16:44.562Z,153
2023-11-18T08:17:53.682Z,113
2023-11-18T08:19:02.854Z,111
2023-11-18T08:20:12.033Z,115
2023-11-18T08:21:21.235Z,133
2023-11-18T08:22:29.401Z,120
2023-11-18T08:23:37.661Z,119
2023-11-18T08:24:45.800Z,121
2023-11-18T08:25:54.962Z,91
2023-11-18T08:27:04.120Z,90
2023-11-18T08:28:13.283Z,123
2023-11-18T08:29:22.461Z,125
2023-11-18T08:30:31.660Z,122
2023-11-18T08:31:40.854Z,115
2023-11-18T08:32:50.105Z,111
2023-11-18T08:33:59.205Z,112
2023-11-18T08:35:08.337Z,109
2023-11-18T08:36:17.524Z,107
2023-11-18T08:37:26.672Z,41
2023-11-18T08:38:35.846Z,62
2023-11-18T08:39:44.042Z,60
2023-11-18T08:40:53.236Z,58
2023-11-18T08:42:02.389Z,91
2023-11-18T08:43:11.589Z,95
2023-11-18T08:44:20.732Z,92
2023-11-18T08:45:29.892Z,56
2023-11-18T08:47:47.288Z,98
2023-11-18T08:48:55.468Z,98
2023-11-18T08:50:03.676Z,97
2023-11-18T08:51:12.831Z,100
2023-11-18T08:52:22.005Z,100
2023-11-18T08:53:31.177Z,113
2023-11-18T08:54:40.431Z,107
2023-11-18T08:55:49.612Z,107
2023-11-18T08:56:58.712Z,111
2023-11-18T08:58:07.882Z,98
2023-11-18T08:59:17.241Z,109
2023-11-18T09:00:26.241Z,112
2023-11-18T09:01:35.501Z,113
2023-11-18T09:02:44.559Z,131
2023-11-18T09:03:53.743Z,128
2023-11-18T09:05:02.000Z,104
2023-11-18T09:06:11.206Z,118
2023-11-18T09:07:20.262Z,111
2023-11-18T09:08:29.450Z,113
2023-11-18T09:09:38.610Z,105
2023-11-18T09:10:47.790Z,133
2023-11-18T09:11:55.974Z,124
2023-11-18T09:13:04.175Z,93
2023-11-18T09:14:12.392Z,140
2023-11-18T09:15:21.535Z,117
2023-11-18T09:16:30.725Z,93
2023-11-18T09:17:39.881Z,104
2023-11-18T09:18:49.058Z,77
2023-11-18T09:19:58.229Z,120
2023-11-18T09:21:07.399Z,90
2023-11-18T09:22:16.579Z,90
2023-11-18T09:23:25.748Z,107
2023-11-18T09:24:34.908Z,100
2023-11-18T09:25:44.116Z,115
2023-11-18T09:26:53.263Z,105
2023-11-18T09:28:02.452Z,134
2023-11-18T09:29:10.639Z,88
2023-11-18T09:30:19.823Z,108
2023-11-18T09:31:28.981Z,110
2023-11-18T09:32:38.154Z,103
2023-11-18T09:33:47.330Z,101
2023-11-18T09:34:56.500Z,105
2023-11-18T09:36:05.665Z,113
2023-11-18T09:37:14.838Z,6
2023-11-18T09:38:24.046Z,120
2023-11-18T09:39:33.192Z,154
2023-11-18T09:40:42.372Z,116
2023-11-18T09:41:51.553Z,98
2023-11-18T09:43:00.775Z,127
2023-11-18T09:44:09.024Z,107
2023-11-18T09:45:18.070Z,109
2023-11-18T09:46:27.320Z,123
2023-11-18T09:47:36.420Z,119
2023-11-18T09:48:45.620Z,109
2023-11-18T09:49:54.755Z,126
2023-11-18T09:51:03.934Z,108
2023-11-18T09:52:12.139Z,145
2023-11-18T09:53:20.320Z,127
2023-11-18T09:54:29.516Z,127
2023-11-18T09:55:38.681Z,122
2023-11-18T09:56:47.841Z,125
2023-11-18T09:57:57.017Z,154
2023-11-18T09:59:06.233Z,136
2023-11-18T10:00:15.358Z,121
2023-11-18T10:01:24.529Z,118
2023-11-18T10:02:33.704Z,93
2023-11-18T10:03:42.995Z,110
2023-11-18T10:04:52.049Z,109
2023-11-18T10:06:01.216Z,143
2023-11-18T10:07:10.404Z,120
2023-11-18T10:08:18.580Z,107
2023-11-18T10:09:27.760Z,109
2023-11-18T10:10:36.919Z,127
2023-11-18T10:11:46.111Z,150
2023-11-18T10:12:55.279Z,156
2023-11-18T10:14:04.465Z,122
2023-11-18T10:15:12.649Z,124
2023-11-18T10:16:20.861Z,131
2023-11-18T10:17:29.085Z,122
2023-11-18T10:18:38.202Z,141
2023-11-18T10:19:47.374Z,105
2023-11-18T10:20:56.570Z,104
2023-11-18T10:22:05.718Z,120
2023-11-18T10:23:14.895Z,125
2023-11-18T10:24:24.063Z,156
2023-11-18T10:25:33.239Z,143
2023-11-18T10:26:42.408Z,105
2023-11-18T10:27:51.592Z,102
2023-11-18T10:29:00.763Z,104
2023-11-18T10:30:09.943Z,135
2023-11-18T10:31:19.094Z,141
2023-11-18T10:32:27.289Z,141
2023-11-18T10:33:36.469Z,127
2023-11-18T10:34:45.631Z,161
2023-11-18T10:35:54.817Z,126
2023-11-18T10:37:03.993Z,146
2023-11-18T10:38:13.145Z,135
2023-11-18T10:39:21.365Z,170
2023-11-18T10:40:29.561Z,147
2023-11-18T10:41:38.853Z,116
2023-11-18T10:42:47.892Z,111
2023-11-18T10:43:57.065Z,116
2023-11-18T10:45:06.346Z,145
2023-11-18T10:46:15.405Z,138
2023-11-18T10:47:24.582Z,116
2023-11-18T10:48:33.758Z,143
2023-11-18T10:49:42.993Z,158
2023-11-18T10:50:52.117Z,151
2023-11-18T10:52:01.275Z,134
2023-11-18T10:53:10.453Z,155
2023-11-18T10:54:19.626Z,129
2023-11-18T10:55:27.804Z,135
2023-11-18T10:56:36.995Z,133
2023-11-18T10:57:46.161Z,131
2023-11-18T10:58:55.338Z,138
2023-11-18T11:00:04.503Z,162
2023-11-18T11:01:13.669Z,128
2023-11-18T11:02:22.858Z,106
2023-11-18T11:03:32.089Z,103
2023-11-18T11:04:41.195Z,102
2023-11-18T11:05:50.381Z,125
2023-11-18T11:06:59.543Z,109
2023-11-18T11:08:08.733Z,111
2023-11-18T11:09:17.912Z,118
2023-11-18T11:10:26.088Z,114
2023-11-18T11:11:35.242Z,88
2023-11-18T11:12:44.417Z,132
2023-11-18T11:13:53.598Z,118
2023-11-18T11:15:02.804Z,113
2023-11-18T11:16:11.992Z,121
2023-11-18T11:17:21.124Z,127
2023-11-18T11:18:30.291Z,142
2023-11-18T11:19:39.461Z,124
2023-11-18T11:20:48.636Z,145
2023-11-18T11:21:57.831Z,144
2023-11-18T11:23:07.002Z,156
2023-11-18T11:24:16.159Z,129
2023-11-18T11:25:24.341Z,143
2023-11-18T11:26:33.514Z,136
2023-11-18T11:27:42.686Z,176
2023-11-18T11:28:51.851Z,117
2023-11-18T11:30:01.034Z,159
2023-11-18T11:31:10.209Z,118
2023-11-18T11:32:19.389Z,143
2023-11-18T11:33:28.551Z,142
2023-11-18T11:34:37.734Z,166
2023-11-18T11:35:46.903Z,133
2023-11-18T11:36:56.086Z,120
2023-11-18T11:38:05.268Z,103
2023-11-18T11:39:14.449Z,141
2023-11-18T11:40:22.617Z,135
2023-11-18T11:41:31.776Z,111
2023-11-18T11:42:41.120Z,152
2023-11-18T11:43:50.265Z,127
2023-11-18T11:44:59.381Z,136
2023-11-18T11:46:08.568Z,130
2023-11-18T11:47:17.641Z,150
2023-11-18T11:48:26.824Z,133
2023-11-18T11:49:35.991Z,115
2023-11-18T11:50:45.154Z,108
2023-11-18T11:51:54.340Z,125
2023-11-18T11:53:03.516Z,106
2023-11-18T11:54:12.681Z,110
2023-11-18T11:55:20.867Z,125
2023-11-18T11:56:30.054Z,122
2023-11-18T11:57:39.230Z,128
2023-11-18T11:58:48.392Z,118
2023-11-18T11:59:57.571Z,125
2023-11-18T12:01:06.739Z,125
2023-11-18T12:02:15.925Z,131
2023-11-18T12:03:25.074Z,145
2023-11-18T12:04:34.258Z,170
2023-11-18T12:05:43.421Z,135
2023-11-18T12:06:52.603Z,136
2023-11-18T12:08:01.775Z,121
2023-11-18T12:09:10.945Z,114
2023-11-18T12:10:19.136Z,135
2023-11-18T12:11:28.323Z,147
2023-11-18T12:12:37.482Z,145
2023-11-18T12:13:45.685Z,124
2023-11-18T12:14:54.853Z,126
2023-11-18T12:16:04.022Z,119
2023-11-18T12:17:13.250Z,104
2023-11-18T12:18:22.368Z,104
2023-11-18T12:19:31.551Z,151
2023-11-18T12:20:40.717Z,120
2023-11-18T12:21:49.966Z,111
2023-11-18T12:22:59.046Z,128
2023-11-18T12:24:08.243Z,99
2023-11-18T12:25:17.411Z,105
2023-11-18T12:26:26.612Z,106
2023-11-18T12:27:35.782Z,97
2023-11-18T12:28:44.022Z,83
2023-11-18T12:29:52.324Z,105
2023-11-18T12:31:00.332Z,103
2023-11-18T12:32:09.499Z,109
2023-11-18T12:33:18.682Z,182
2023-11-18T12:34:27.884Z,187
2023-11-18T12:35:37.022Z,121
2023-11-18T12:36:46.193Z,132
2023-11-18T12:37:55.377Z,128
2023-11-18T12:39:04.530Z,142
2023-11-18T12:40:13.712Z,131
2023-11-18T12:41:22.878Z,106
2023-11-18T12:42:32.064Z,141
2023-11-18T12:43:41.225Z,97
2023-11-18T12:44:50.529Z,127
2023-11-18T12:45:58.602Z,133
2023-11-18T12:47:07.763Z,102
2023-11-18T12:48:16.950Z,112
2023-11-18T12:49:26.191Z,99
2023-11-18T12:50:35.283Z,122
2023-11-18T12:51:44.460Z,144
2023-11-18T12:52:53.628Z,134
2023-11-18T12:54:02.805Z,134
2023-11-18T12:55:11.965Z,119
2023-11-18T12:56:21.152Z,134
2023-11-18T12:57:30.399Z,106
2023-11-18T12:58:39.517Z,147
2023-11-18T12:59:48.760Z,173
2023-11-18T13:00:56.859Z,124
2023-11-18T13:02:06.092Z,159
2023-11-18T13:03:15.198Z,115
2023-11-18T13:04:24.393Z,132
2023-11-18T13:05:33.568Z,148
2023-11-18T13:06:42.718Z,135
2023-11-18T13:07:51.896Z,127
2023-11-18T13:09:01.096Z,130
2023-11-18T13:11:19.422Z,123
2023-11-18T13:12:28.586Z,104
2023-11-18T13:13:37.780Z,94
2023-11-18T13:14:46.972Z,108
2023-11-18T13:15:55.139Z,94
2023-11-18T13:17:04.307Z,109
2023-11-18T13:18:13.464Z,126
2023-11-18T13:19:22.658Z,83
2023-11-18T13:20:31.840Z,125
2023-11-18T13:21:41.065Z,97
2023-11-18T13:22:50.346Z,111
2023-11-18T13:23:59.341Z,117
2023-11-18T13:25:08.584Z,133
2023-11-18T13:26:17.690Z,134
2023-11-18T13:27:26.885Z,120
2023-11-18T13:28:36.050Z,140
2023-11-18T13:29:45.309Z,138
2023-11-18T13:30:53.486Z,113
2023-11-18T13:32:02.570Z,162
2023-11-18T13:33:11.767Z,100
2023-11-18T13:34:20.939Z,140
2023-11-18T13:35:30.098Z,124
2023-11-18T13:36:39.257Z,125
2023-11-18T13:37:48.533Z,134
2023-11-18T13:38:57.594Z,120
2023-11-18T13:40:06.776Z,108
2023-11-18T13:41:15.959Z,120
2023-11-18T13:42:25.130Z,125
2023-11-18T13:43:34.311Z,138
2023-11-18T13:44:43.463Z,100
2023-11-18T13:45:51.680Z,127
2023-11-18T13:47:00.848Z,108
2023-11-18T13:48:09.997Z,133
2023-11-18T13:50:28.362Z,135
2023-11-18T13:51:37.531Z,88
2023-11-18T13:52:46.763Z,134
2023-11-18T13:53:55.867Z,104
2023-11-18T13:55:05.058Z,128
2023-11-18T13:56:14.224Z,131
2023-11-18T13:57:23.409Z,119
2023-11-18T13:58:32.575Z,135
2023-11-18T13:59:41.731Z,128
2023-11-18T14:00:49.914Z,121
2023-11-18T14:01:59.099Z,146
2023-11-18T14:03:08.349Z,116
2023-11-18T14:04:17.453Z,93
2023-11-18T14:05:26.619Z,156
2023-11-18T14:06:35.811Z,105
2023-11-18T14:07:44.976Z,106
2023-11-18T14:08:54.121Z,126
2023-11-18T14:10:03.309Z,112
2023-11-18T14:11:12.661Z,141
2023-11-18T14:12:21.779Z,110
2023-11-18T14:13:30.823Z,118
2023-11-18T14:14:39.992Z,139
2023-11-18T14:16:57.362Z,130
2023-11-18T14:18:06.532Z,135
2023-11-18T14:19:15.701Z,125
2023-11-18T14:20:24.871Z,134
2023-11-18T14:21:34.061Z,100
2023-11-18T14:22:43.238Z,112
2023-11-18T14:23:52.558Z,136
2023-11-18T14:25:01.561Z,105
2023-11-18T14:26:10.764Z,143
2023-11-18T14:27:19.904Z,114
2023-11-18T14:28:29.094Z,90
2023-11-18T14:30:47.522Z,127
2023-11-18T14:31:55.742Z,85
2023-11-18T14:33:04.804Z,119
2023-11-18T14:34:13.961Z,145
2023-11-18T14:35:23.174Z,113
2023-11-18T14:36:32.352Z,125
2023-11-18T14:37:41.498Z,121
2023-11-18T14:38:50.677Z,87
2023-11-18T14:39:59.827Z,121
2023-11-18T14:42:18.171Z,127
2023-11-18T14:43:27.354Z,104
2023-11-18T14:44:36.537Z,128
2023-11-18T14:45:45.742Z,95
2023-11-18T14:46:54.005Z,116
2023-11-18T14:48:03.079Z,127
2023-11-18T14:49:12.368Z,124
2023-11-18T14:50:21.444Z,128
2023-11-18T14:51:30.587Z,129
2023-11-18T14:52:39.755Z,105
2023-11-18T14:53:48.944Z,92
2023-11-18T14:54:58.096Z,92
2023-11-18T14:56:07.311Z,128
2023-11-18T14:57:16.444Z,109
2023-11-18T14:58:25.614Z,108
2023-11-18T14:59:34.876Z,123
2023-11-18T15:00:43.994Z,115
2023-11-18T15:01:52.144Z,116
2023-11-18T15:03:01.430Z,129
2023-11-18T15:04:10.501Z,74
2023-11-18T15:05:19.679Z,120
2023-11-18T15:06:28.894Z,124
2023-11-18T15:08:47.401Z,103
2023-11-18T15:09:56.562Z,119
2023-11-18T15:11:05.562Z,94
2023-11-18T15:12:14.872Z,123
2023-11-18T15:13:24.016Z,123
2023-11-18T15:14:33.224Z,112
2023-11-18T15:15:42.239Z,119
2023-11-18T15:16:50.487Z,179
2023-11-18T15:17:58.609Z,126
2023-11-18T15:19:06.805Z,112
2023-11-18T15:20:15.981Z,97
2023-11-18T15:21:25.280Z,75
2023-11-18T15:22:34.339Z,124
2023-11-18T15:23:43.506Z,126
2023-11-18T15:24:52.688Z,157
2023-11-18T15:26:01.918Z,118
2023-11-18T15:27:11.058Z,97
2023-11-18T15:28:20.213Z,116
2023-11-18T15:29:29.356Z,89
2023-11-18T15:30:38.538Z,127
2023-11-18T15:31:47.727Z,137
2023-11-18T15:32:56.886Z,116
2023-11-18T15:34:05.218Z,123
2023-11-18T15:35:14.340Z,126
2023-11-18T15:36:23.477Z,73
2023-11-18T15:37:32.587Z,129
2023-11-18T15:38:41.791Z,115
2023-11-18T15:39:50.947Z,97
2023-11-18T15:41:00.128Z,110
2023-11-18T15:42:09.296Z,96
2023-11-18T15:43:18.562Z,97
2023-11-18T15:44:28.031Z,93
2023-11-18T15:45:37.144Z,131
2023-11-18T15:46:45.962Z,132
2023-11-18T15:47:55.122Z,109
2023-11-18T15:49:03.545Z,127
2023-11-18T15:50:12.672Z,177
2023-11-18T15:51:20.907Z,115
2023-11-18T15:52:28.894Z,90
2023-11-18T15:53:38.225Z,145
2023-11-18T15:54:47.354Z,51
2023-11-18T15:55:55.762Z,100
2023-11-18T15:57:04.712Z,124
2023-11-18T15:58:13.985Z,118
2023-11-18T15:59:22.973Z,147
2023-11-18T16:00:32.273Z,109
2023-11-18T16:01:41.338Z,112
2023-11-18T16:02:50.480Z,19
2023-11-18T16:03:59.651Z,129
2023-11-18T16:05:07.898Z,98
2023-11-18T16:06:17.025Z,107
2023-11-18T16:07:26.372Z,119
2023-11-18T16:09:44.538Z,104
2023-11-18T16:10:53.999Z,108
2023-11-18T16:12:02.933Z,99
2023-11-18T16:13:12.143Z,112
2023-11-18T16:14:21.229Z,157
2023-11-18T16:15:30.400Z,100
2023-11-18T16:16:39.604Z,89
2023-11-18T16:17:48.771Z,100
2023-11-18T16:18:57.906Z,110
2023-11-18T16:20:06.120Z,97
2023-11-18T16:21:15.485Z,110
2023-11-18T16:22:24.461Z,114
2023-11-18T16:23:33.623Z,93
2023-11-18T16:24:42.779Z,105
2023-11-18T16:25:52.090Z,104
2023-11-18T16:27:01.147Z,134
2023-11-18T16:28:10.298Z,108
2023-11-18T16:29:19.527Z,125
2023-11-18T16:30:28.729Z,99
2023-11-18T16:31:37.827Z,87
2023-11-18T16:32:47.020Z,136
2023-11-18T16:33:56.194Z,126
2023-11-18T16:35:04.486Z,116
2023-11-18T16:36:13.593Z,108
2023-11-18T16:37:22.755Z,61
2023-11-18T16:38:32.004Z,119
2023-11-18T16:39:41.071Z,115
2023-11-18T16:40:50.399Z,115
2023-11-18T16:41:59.404Z,128
2023-11-18T16:43:08.618Z,132
2023-11-18T16:44:17.743Z,112